Time;durP1;ratioP1;P1;durP2;ratioP2;P2;SDS_P1;SDS_P2;PMS_P1;PMS_P2;Temp;Humidity;BMP_temperature;BMP_pressure;BME280_temperature;BME280_humidity;BME280_pressure;Samples;Min_cycle;Max_cycle;Signal;HPM_P1;HPM_P2
2021/12/14 00:01:18;;;;;;;28.73;20.00;;;8.20;91.90;;;;;;5072156;28;20210;-90
2021/12/14 00:03:47;;;;;;;23.30;18.90;;;8.20;92.00;;;;;;5072172;28;20178;-90
2021/12/14 00:06:18;;;;;;;29.40;19.77;;;8.10;92.10;;;;;;5072545;28;20305;-89
2021/12/14 00:09:23;;;;;;;26.97;19.47;;;8.10;92.20;;;;;;5072746;28;20186;-89
2021/12/14 00:17:39;;;;;;;24.03;19.13;;;8.20;91.90;;;;;;5073510;28;20295;-89
2021/12/14 00:20:17;;;;;;;21.03;16.47;;;8.30;91.60;;;;;;5080882;28;20207;-87
2021/12/14 00:25:43;;;;;;;18.47;14.93;;;8.30;91.50;;;;;;5077637;28;20163;-90
2021/12/14 00:28:13;;;;;;;21.27;16.40;;;8.30;91.20;;;;;;5077432;28;20586;-90
2021/12/14 00:30:40;;;;;;;21.93;17.63;;;8.30;91.10;;;;;;5075939;28;20223;-89
2021/12/14 00:33:08;;;;;;;27.87;18.03;;;8.30;91.00;;;;;;5075885;28;20281;-89
2021/12/14 00:35:34;;;;;;;21.70;18.00;;;8.30;91.10;;;;;;5076234;28;20172;-89
2021/12/14 00:38:00;;;;;;;21.93;18.03;;;8.30;91.20;;;;;;5075952;28;20220;-89
2021/12/14 00:40:31;;;;;;;19.30;15.97;;;8.30;91.10;;;;;;5075673;28;20226;-89
2021/12/14 00:42:58;;;;;;;21.80;17.07;;;8.30;91.20;;;;;;5075812;28;20206;-89
2021/12/14 00:45:26;;;;;;;22.27;17.77;;;8.30;91.20;;;;;;5075610;28;20183;-90
2021/12/14 00:47:52;;;;;;;22.13;16.90;;;8.30;91.30;;;;;;5075659;28;20207;-89
2021/12/14 00:50:20;;;;;;;22.13;17.87;;;8.30;91.20;;;;;;5076789;28;20211;-89
2021/12/14 00:52:47;;;;;;;26.53;19.43;;;8.30;91.20;;;;;;5075595;28;20181;-89
2021/12/14 00:55:18;;;;;;;22.83;19.37;;;8.30;91.10;;;;;;5075882;28;20668;-90
2021/12/14 00:57:44;;;;;;;24.87;19.43;;;8.30;91.20;;;;;;5076969;28;20160;-90
2021/12/14 01:00:14;;;;;;;20.30;17.23;;;8.20;91.30;;;;;;5075253;28;20219;-89
2021/12/14 01:02:41;;;;;;;25.53;19.67;;;8.30;91.30;;;;;;5076281;28;20599;-90
2021/12/14 01:05:12;;;;;;;24.87;19.47;;;8.30;91.40;;;;;;5076842;28;20536;-89
2021/12/14 01:07:38;;;;;;;25.80;19.43;;;8.20;91.50;;;;;;5075223;28;20191;-89
2021/12/14 01:10:21;;;;;;;32.13;19.03;;;8.30;91.40;;;;;;5075147;28;20187;-89
2021/12/14 01:12:51;;;;;;;26.50;20.67;;;8.30;91.30;;;;;;5075472;28;20225;-89
2021/12/14 01:15:49;;;;;;;24.80;19.43;;;8.30;91.40;;;;;;5075245;28;20543;-89
2021/12/14 01:18:29;;;;;;;23.03;18.67;;;8.30;91.20;;;;;;5076367;28;20239;-87
2021/12/14 01:21:01;;;;;;;24.73;20.00;;;8.20;91.20;;;;;;5076259;28;20285;-89
2021/12/14 01:23:32;;;;;;;23.10;18.03;;;8.30;91.30;;;;;;5075052;28;20579;-89
2021/12/14 01:26:04;;;;;;;24.00;17.03;;;8.30;91.10;;;;;;5075768;28;20244;-89
2021/12/14 01:28:31;;;;;;;23.87;18.40;;;8.20;91.30;;;;;;5075774;28;20170;-89
2021/12/14 01:31:31;;;;;;;27.73;21.07;;;8.30;91.20;;;;;;5074980;28;20240;-89
2021/12/14 01:34:02;;;;;;;23.50;18.50;;;8.30;91.10;;;;;;5076046;28;20207;-89
2021/12/14 01:40:05;;;;;;;20.47;16.47;;;8.20;91.10;;;;;;5076280;28;20176;-90
2021/12/14 01:42:07;;;;;;;20.73;16.07;;;8.30;91.30;;;;;;5079518;28;20203;-90
2021/12/14 01:44:36;;;;;;;24.03;17.77;;;8.20;91.00;;;;;;5074890;28;20168;-89
2021/12/14 01:47:29;;;;;;;23.13;17.83;;;8.30;90.90;;;;;;5074734;28;20666;-89
2021/12/14 01:49:55;;;;;;;22.73;15.33;;;8.30;90.80;;;;;;5074026;28;20234;-89
2021/12/14 01:52:27;;;;;;;23.80;16.40;;;8.20;90.90;;;;;;5075307;28;20297;-89
2021/12/14 01:54:58;;;;;;;21.97;16.33;;;8.30;90.90;;;;;;5074432;28;20179;-89
2021/12/14 01:57:27;;;;;;;22.17;17.17;;;8.20;90.90;;;;;;5074422;28;20650;-89
2021/12/14 01:59:56;;;;;;;24.53;19.37;;;8.30;90.70;;;;;;5075184;28;20262;-89
2021/12/14 02:02:41;;;;;;;23.60;18.53;;;8.30;90.80;;;;;;5076135;28;20190;-89
2021/12/14 02:05:16;;;;;;;23.83;16.93;;;8.30;90.80;;;;;;5075842;28;20159;-90
2021/12/14 02:07:42;;;;;;;25.97;18.47;;;8.30;90.70;;;;;;5074137;28;20233;-89
2021/12/14 02:10:17;;;;;;;21.93;16.50;;;8.30;90.70;;;;;;5074071;28;20191;-89
2021/12/14 02:12:47;;;;;;;23.87;15.00;;;8.30;90.40;;;;;;5075625;28;20166;-89
2021/12/14 02:15:26;;;;;;;24.60;20.03;;;8.30;90.50;;;;;;5075277;28;20239;-89
2021/12/14 02:17:55;;;;;;;18.80;14.83;;;8.30;90.60;;;;;;5074085;28;20163;-89
2021/12/14 02:20:25;;;;;;;24.77;19.00;;;8.20;90.70;;;;;;5075395;28;20199;-89
2021/12/14 02:22:51;;;;;;;21.70;17.97;;;8.20;90.70;;;;;;5075176;28;20167;-89
2021/12/14 02:25:17;;;;;;;31.57;19.43;;;8.20;90.80;;;;;;5074922;28;20262;-89
2021/12/14 02:27:46;;;;;;;28.50;18.93;;;8.20;90.80;;;;;;5074919;28;20674;-88
2021/12/14 02:30:19;;;;;;;25.37;18.97;;;8.20;90.90;;;;;;5073965;28;20191;-89
2021/12/14 02:32:45;;;;;;;21.00;17.23;;;8.20;90.80;;;;;;5073889;28;20159;-89
2021/12/14 02:35:18;;;;;;;23.60;19.63;;;8.20;90.70;;;;;;5073690;28;20240;-89
2021/12/14 02:37:55;;;;;;;24.00;19.23;;;8.20;90.80;;;;;;5073672;28;20698;-89
2021/12/14 02:40:53;;;;;;;28.33;20.00;;;8.20;90.70;;;;;;5072727;28;20225;-89
2021/12/14 02:43:16;;;;;;;26.83;19.03;;;8.20;90.80;;;;;;5074520;28;20661;-89
2021/12/14 02:45:42;;;;;;;25.60;19.70;;;8.10;90.70;;;;;;5074525;28;20175;-89
2021/12/14 02:48:09;;;;;;;23.63;18.90;;;8.20;90.70;;;;;;5073403;28;20176;-89
2021/12/14 02:50:35;;;;;;;25.80;19.50;;;8.10;90.70;;;;;;5073247;28;20195;-89
2021/12/14 02:53:00;;;;;;;29.70;19.63;;;8.20;90.60;;;;;;5073243;28;20376;-89
2021/12/14 02:55:27;;;;;;;26.53;20.20;;;8.10;90.70;;;;;;5073157;28;20263;-89
2021/12/14 02:57:57;;;;;;;27.67;19.57;;;8.20;90.60;;;;;;5073175;28;20168;-89
2021/12/14 03:00:37;;;;;;;28.37;20.37;;;8.20;90.70;;;;;;5074659;28;20210;-89
2021/12/14 03:03:04;;;;;;;23.83;16.90;;;8.10;90.80;;;;;;5073110;28;20160;-89
2021/12/14 03:05:35;;;;;;;28.07;20.37;;;8.00;91.00;;;;;;5072907;28;20167;-89
2021/12/14 03:08:14;;;;;;;23.27;19.50;;;8.00;91.00;;;;;;5073058;28;20178;-89
2021/12/14 03:10:55;;;;;;;26.67;21.10;;;8.10;90.80;;;;;;5072885;28;20667;-89
2021/12/14 03:13:25;;;;;;;24.00;19.07;;;8.00;90.80;;;;;;5073242;28;20168;-89
2021/12/14 03:15:55;;;;;;;24.13;20.60;;;8.10;90.80;;;;;;5074375;28;20187;-89
2021/12/14 03:18:32;;;;;;;24.67;20.53;;;8.00;90.80;;;;;;5072812;28;20224;-89
2021/12/14 03:21:04;;;;;;;29.80;20.50;;;8.10;90.80;;;;;;5072670;28;20329;-89
2021/12/14 03:23:36;;;;;;;26.70;20.97;;;8.10;90.70;;;;;;5073940;28;20168;-89
2021/12/14 03:26:09;;;;;;;22.93;18.17;;;8.00;90.80;;;;;;5072552;28;20281;-89
2021/12/14 03:28:37;;;;;;;26.50;21.20;;;8.00;90.80;;;;;;5073534;28;20582;-89
2021/12/14 03:31:21;;;;;;;23.87;19.67;;;8.00;90.80;;;;;;5072465;28;20194;-89
2021/12/14 03:33:51;;;;;;;24.80;20.00;;;8.00;90.70;;;;;;5073823;28;20177;-89
2021/12/14 03:36:23;;;;;;;21.93;17.00;;;8.00;90.70;;;;;;5072763;28;20201;-89
2021/12/14 03:38:58;;;;;;;24.37;18.90;;;8.00;90.50;;;;;;5072589;28;20167;-89
2021/12/14 03:41:35;;;;;;;21.90;17.27;;;8.10;90.50;;;;;;5072370;28;20203;-89
2021/12/14 03:44:11;;;;;;;21.73;18.37;;;8.00;90.50;;;;;;5072801;28;20655;-89
2021/12/14 03:46:57;;;;;;;18.30;15.53;;;8.10;90.30;;;;;;5072387;28;20245;-89
2021/12/14 03:49:32;;;;;;;24.70;19.07;;;8.00;90.30;;;;;;5073159;28;20213;-89
2021/12/14 03:51:58;;;;;;;25.33;18.53;;;8.00;90.30;;;;;;5073311;28;20198;-89
2021/12/14 03:54:24;;;;;;;23.50;17.83;;;8.00;90.30;;;;;;5072957;28;20171;-89
2021/12/14 03:56:51;;;;;;;22.50;17.50;;;8.00;90.40;;;;;;5072326;28;20635;-89
2021/12/14 03:59:17;;;;;;;23.17;17.57;;;8.00;90.20;;;;;;5072207;28;20220;-89
2021/12/14 04:01:47;;;;;;;22.10;18.63;;;8.00;90.30;;;;;;5132409;22;20317;-88
2021/12/14 04:04:18;;;;;;;21.40;17.20;;;8.00;90.30;;;;;;5033566;28;20180;-88
2021/12/14 04:06:45;;;;;;;21.73;19.00;;;8.00;90.10;;;;;;5033477;28;20279;-87
2021/12/14 04:09:14;;;;;;;20.93;14.70;;;8.00;89.90;;;;;;5032286;28;20180;-87
2021/12/14 04:11:40;;;;;;;21.50;16.57;;;8.00;90.10;;;;;;5033343;28;20195;-87
2021/12/14 04:14:07;;;;;;;26.53;15.10;;;8.00;90.10;;;;;;5032176;28;20173;-87
2021/12/14 04:16:34;;;;;;;23.13;16.17;;;8.00;90.20;;;;;;5032168;28;20262;-88
2021/12/14 04:19:08;;;;;;;23.93;16.30;;;8.00;90.00;;;;;;5033499;28;20251;-87
2021/12/14 04:21:38;;;;;;;20.80;15.63;;;8.00;90.10;;;;;;5032252;28;20548;-87
2021/12/14 04:24:05;;;;;;;15.57;11.43;;;8.00;90.10;;;;;;5032095;28;20180;-87
2021/12/14 04:26:31;;;;;;;19.97;14.87;;;8.00;90.10;;;;;;5033784;28;20207;-88
2021/12/14 04:29:00;;;;;;;21.17;16.63;;;8.00;89.80;;;;;;5032281;28;20263;-88
2021/12/14 04:31:26;;;;;;;20.13;13.87;;;8.10;89.60;;;;;;5032251;28;20258;-87
2021/12/14 04:33:53;;;;;;;21.43;14.93;;;8.10;89.50;;;;;;5032166;28;20168;-87
2021/12/14 04:36:25;;;;;;;18.60;13.40;;;8.00;89.60;;;;;;5032220;28;20195;-87
2021/12/14 04:38:57;;;;;;;21.43;15.80;;;8.10;89.40;;;;;;5034078;28;20154;-87
2021/12/14 04:52:29;;;;;;;19.83;13.90;;;8.00;89.30;;;;;;5033777;28;20667;-87
2021/12/14 04:54:58;;;;;;;14.23;10.37;;;8.00;89.00;;;;;;5033259;28;20696;-87
2021/12/14 04:57:29;;;;;;;14.97;13.37;;;8.00;88.70;;;;;;5032039;28;20181;-87
2021/12/14 04:59:59;;;;;;;17.50;13.87;;;8.00;88.80;;;;;;5032086;28;20177;-87
2021/12/14 05:02:28;;;;;;;17.17;14.10;;;8.00;89.10;;;;;;5031720;28;20196;-87
2021/12/14 05:04:56;;;;;;;17.33;13.97;;;8.00;89.10;;;;;;5034881;28;20187;-87
2021/12/14 05:07:33;;;;;;;18.37;14.27;;;8.00;89.00;;;;;;5035538;28;20201;-87
2021/12/14 05:10:03;;;;;;;21.20;14.93;;;8.00;88.90;;;;;;5035614;28;20165;-87
2021/12/14 05:12:32;;;;;;;16.23;13.50;;;8.00;88.90;;;;;;5035804;28;20609;-87
2021/12/14 05:15:00;;;;;;;19.43;15.00;;;8.00;89.10;;;;;;5035361;28;20648;-87
2021/12/14 05:17:33;;;;;;;18.80;12.03;;;8.00;89.00;;;;;;5036646;28;20310;-87
2021/12/14 05:20:00;;;;;;;16.93;12.30;;;8.00;89.00;;;;;;5036339;28;20248;-87
2021/12/14 05:22:31;;;;;;;19.43;14.93;;;8.00;89.00;;;;;;5035144;28;20176;-87
2021/12/14 05:25:02;;;;;;;20.80;14.23;;;8.00;88.90;;;;;;5035283;28;20652;-87
2021/12/14 05:27:35;;;;;;;15.80;12.30;;;8.00;89.00;;;;;;5036650;28;20189;-88
2021/12/14 05:30:10;;;;;;;17.73;15.10;;;8.00;89.00;;;;;;5035331;28;20594;-87
2021/12/14 05:32:37;;;;;;;15.60;12.60;;;8.00;89.40;;;;;;5036294;28;20161;-87
2021/12/14 05:35:04;;;;;;;17.37;13.27;;;7.90;89.60;;;;;;5035175;28;20176;-87
2021/12/14 05:37:34;;;;;;;17.47;15.07;;;7.90;89.90;;;;;;5036549;28;20200;-88
2021/12/14 05:40:04;;;;;;;19.70;15.87;;;7.80;90.60;;;;;;5036109;28;20240;-89
2021/12/14 05:45:19;;;;;;;22.97;16.13;;;7.70;91.20;;;;;;5036422;28;20248;-88
2021/12/14 05:47:50;;;;;;;19.00;15.10;;;7.70;91.60;;;;;;5034678;28;20207;-88
2021/12/14 05:50:24;;;;;;;20.93;16.23;;;7.60;92.00;;;;;;5036114;28;20180;-87
2021/12/14 05:52:49;;;;;;;25.40;19.33;;;7.60;92.20;;;;;;5036056;28;20164;-88
2021/12/14 05:55:21;;;;;;;22.37;18.20;;;7.60;92.50;;;;;;5035962;28;20168;-87
2021/12/14 05:57:46;;;;;;;24.77;18.13;;;7.50;92.60;;;;;;5035925;28;20185;-87
2021/12/14 06:00:15;;;;;;;23.33;17.90;;;7.50;92.70;;;;;;5034355;28;20181;-87
2021/12/14 06:02:41;;;;;;;23.53;17.83;;;7.50;92.80;;;;;;5036269;28;20271;-87
2021/12/14 06:05:12;;;;;;;24.83;18.03;;;7.50;92.90;;;;;;5036056;28;20183;-87
2021/12/14 06:07:38;;;;;;;23.97;19.03;;;7.50;93.00;;;;;;5034478;28;20193;-87
2021/12/14 06:10:04;;;;;;;26.07;18.33;;;7.50;93.00;;;;;;5035578;28;20232;-87
2021/12/14 06:12:33;;;;;;;27.37;18.23;;;7.50;93.00;;;;;;5034392;28;20208;-87
2021/12/14 06:15:00;;;;;;;29.57;19.10;;;7.50;93.10;;;;;;5033323;28;20311;-87
2021/12/14 06:17:30;;;;;;;29.87;19.80;;;7.50;93.10;;;;;;5034405;28;20543;-87
2021/12/14 06:20:04;;;;;;;28.90;20.57;;;7.50;93.20;;;;;;5035511;28;20180;-87
2021/12/14 06:22:29;;;;;;;25.80;17.23;;;7.50;93.20;;;;;;5034169;28;20165;-87
2021/12/14 06:24:59;;;;;;;26.37;20.80;;;7.50;93.30;;;;;;5035600;28;20179;-87
2021/12/14 06:27:28;;;;;;;24.37;16.20;;;7.50;93.30;;;;;;5033979;28;20201;-87
2021/12/14 06:30:08;;;;;;;21.93;16.67;;;7.50;93.50;;;;;;5034069;28;20590;-87
2021/12/14 06:32:39;;;;;;;24.40;17.70;;;7.40;93.70;;;;;;5034156;28;20203;-87
2021/12/14 06:35:19;;;;;;;35.40;23.23;;;7.40;93.90;;;;;;5033981;28;20171;-88
2021/12/14 06:38:39;;;;;;;31.60;20.03;;;7.40;94.00;;;;;;5034093;28;20173;-87
2021/12/14 06:41:10;;;;;;;34.53;21.97;;;7.40;94.00;;;;;;5039987;28;20197;-88
2021/12/14 06:44:02;;;;;;;30.27;22.60;;;7.40;94.10;;;;;;5033827;28;20180;-87
2021/12/14 06:46:31;;;;;;;32.40;20.73;;;7.40;94.00;;;;;;5032492;28;20216;-88
2021/12/14 06:49:00;;;;;;;35.13;25.90;;;7.50;94.00;;;;;;5033612;28;20172;-88
2021/12/14 06:51:31;;;;;;;31.60;23.97;;;7.50;93.90;;;;;;5033496;28;20200;-87
2021/12/14 06:54:09;;;;;;;35.90;26.13;;;7.50;93.80;;;;;;5033447;28;20194;-87
2021/12/14 06:56:35;;;;;;;39.73;25.30;;;7.50;93.90;;;;;;5034731;28;20160;-87
2021/12/14 06:59:05;;;;;;;30.03;21.50;;;7.50;93.90;;;;;;5034592;28;20546;-88
2021/12/14 07:01:40;;;;;;;40.10;26.83;;;7.60;93.80;;;;;;5034404;28;20227;-87
2021/12/14 07:04:09;;;;;;;42.13;28.07;;;7.60;93.70;;;;;;5034535;28;20257;-87
2021/12/14 07:06:37;;;;;;;40.63;26.70;;;7.60;93.60;;;;;;5033190;28;20684;-88
2021/12/14 07:09:10;;;;;;;39.53;27.37;;;7.70;93.60;;;;;;5034496;28;20169;-87
2021/12/14 07:11:39;;;;;;;36.97;27.40;;;7.60;93.50;;;;;;5034570;28;20189;-88
2021/12/14 07:14:39;;;;;;;41.53;27.80;;;7.60;93.50;;;;;;5033308;28;20177;-87
2021/12/14 07:17:11;;;;;;;42.67;28.23;;;7.70;93.40;;;;;;5032699;28;20189;-87
2021/12/14 07:19:56;;;;;;;40.67;27.33;;;7.70;93.40;;;;;;5033170;28;20678;-88
2021/12/14 07:25:19;;;;;;;44.10;27.93;;;7.70;93.40;;;;;;5037787;28;20184;-89
2021/12/14 07:27:47;;;;;;;41.93;25.83;;;7.70;93.40;;;;;;5037611;28;20201;-88
2021/12/14 07:30:17;;;;;;;43.33;28.03;;;7.70;93.50;;;;;;5039055;28;20179;-90
2021/12/14 07:32:52;;;;;;;52.20;31.27;;;7.70;93.60;;;;;;5037900;28;20533;-88
2021/12/14 07:35:31;;;;;;;43.00;27.50;;;7.70;93.60;;;;;;5037931;28;20180;-89
2021/12/14 07:38:24;;;;;;;42.07;26.90;;;7.70;93.50;;;;;;5037645;28;20604;-88
2021/12/14 07:41:17;;;;;;;45.80;28.20;;;7.80;93.50;;;;;;5037661;28;20208;-89
2021/12/14 07:43:45;;;;;;;43.30;29.63;;;7.80;93.50;;;;;;5036852;28;20743;-88
2021/12/14 07:46:28;;;;;;;47.10;29.63;;;7.80;93.50;;;;;;5037388;28;20201;-88
2021/12/14 07:49:07;;;;;;;35.10;18.60;;;7.80;93.50;;;;;;5037180;28;20165;-88
2021/12/14 07:51:35;;;;;;;41.10;29.63;;;7.80;93.30;;;;;;5037168;28;20216;-88
2021/12/14 07:54:10;;;;;;;42.37;28.13;;;7.80;93.30;;;;;;5038723;28;20176;-88
2021/12/14 07:56:38;;;;;;;52.47;31.97;;;7.80;93.20;;;;;;5038153;28;20164;-88
2021/12/14 07:59:29;;;;;;;50.90;31.77;;;7.80;93.20;;;;;;5037933;28;20223;-89
2021/12/14 08:02:33;;;;;;;46.53;28.63;;;7.80;93.20;;;;;;5037100;28;20224;-89
2021/12/14 08:05:05;;;;;;;50.63;30.73;;;7.80;93.30;;;;;;5037595;28;20664;-88
2021/12/14 08:07:30;;;;;;;53.07;31.93;;;7.80;93.30;;;;;;5035751;28;20197;-89
2021/12/14 08:10:23;;;;;;;45.03;27.77;;;7.80;93.50;;;;;;5037430;28;20232;-89
2021/12/14 08:12:52;;;;;;;49.77;27.63;;;7.70;93.70;;;;;;5036287;28;20157;-88
2021/12/14 08:15:25;;;;;;;54.93;33.77;;;7.70;94.00;;;;;;5037057;28;20172;-89
2021/12/14 08:18:17;;;;;;;53.43;31.97;;;7.70;94.10;;;;;;5035436;28;20172;-89
2021/12/14 08:20:58;;;;;;;50.00;28.57;;;7.70;94.20;;;;;;5035393;28;20605;-88
2021/12/14 08:23:30;;;;;;;57.43;34.63;;;7.70;94.30;;;;;;5035728;28;20165;-88
2021/12/14 08:26:12;;;;;;;53.83;33.70;;;7.70;94.40;;;;;;5035323;28;20176;-88
2021/12/14 08:29:00;;;;;;;58.67;34.47;;;7.70;94.50;;;;;;5035481;28;20168;-88
2021/12/14 08:31:36;;;;;;;54.43;34.87;;;7.70;94.50;;;;;;5034765;28;20280;-89
2021/12/14 08:34:12;;;;;;;55.47;31.63;;;7.70;94.60;;;;;;5035209;28;20168;-89
2021/12/14 08:36:41;;;;;;;63.83;34.63;;;7.70;94.70;;;;;;5036109;28;20165;-89
2021/12/14 08:39:27;;;;;;;58.93;33.93;;;7.70;94.80;;;;;;5035290;28;20177;-88
2021/12/14 08:42:09;;;;;;;59.80;36.00;;;7.70;94.80;;;;;;5036037;28;20573;-88
2021/12/14 08:44:39;;;;;;;62.40;35.03;;;7.70;94.80;;;;;;5038476;28;20210;-87
2021/12/14 08:47:11;;;;;;;66.00;38.67;;;7.70;94.90;;;;;;5037020;28;20695;-89
2021/12/14 08:49:40;;;;;;;74.70;38.23;;;7.70;94.90;;;;;;5036187;28;20212;-88
2021/12/14 08:52:06;;;;;;;62.97;35.30;;;7.80;95.00;;;;;;5037051;28;20180;-88
2021/12/14 08:54:35;;;;;;;69.17;38.07;;;7.70;95.00;;;;;;5035995;28;20218;-89
2021/12/14 08:57:05;;;;;;;64.57;32.67;;;7.70;95.10;;;;;;5037139;28;20640;-89
2021/12/14 08:59:32;;;;;;;65.57;34.27;;;7.70;95.00;;;;;;5036833;28;20255;-88
2021/12/14 09:01:59;;;;;;;64.60;34.27;;;7.70;95.10;;;;;;5035598;28;20343;-87
2021/12/14 09:04:31;;;;;;;73.57;40.93;;;7.80;95.20;;;;;;5035620;28;20204;-87
2021/12/14 09:07:01;;;;;;;62.17;32.93;;;7.70;95.20;;;;;;5037037;28;20588;-88
2021/12/14 09:09:27;;;;;;;81.50;41.57;;;7.70;95.20;;;;;;5035727;28;20165;-88
2021/12/14 09:12:24;;;;;;;76.77;39.43;;;7.70;95.30;;;;;;5036731;28;20185;-88
2021/12/14 09:14:53;;;;;;;87.83;41.70;;;7.70;95.30;;;;;;5035505;28;20164;-89
2021/12/14 09:17:24;;;;;;;76.33;38.07;;;7.70;95.40;;;;;;5035469;28;20184;-87
2021/12/14 09:19:59;;;;;;;86.90;40.73;;;7.70;95.40;;;;;;5035458;28;20177;-88
2021/12/14 09:22:29;;;;;;;91.27;43.93;;;7.70;95.50;;;;;;5035650;28;20176;-88
2021/12/14 09:24:56;;;;;;;89.43;43.83;;;7.70;95.50;;;;;;5036440;28;20710;-88
2021/12/14 09:27:24;;;;;;;89.70;42.80;;;7.70;95.50;;;;;;5035270;28;20256;-88
2021/12/14 09:29:51;;;;;;;93.27;43.60;;;7.70;95.50;;;;;;5036476;28;20177;-88
2021/12/14 09:32:23;;;;;;;84.47;41.60;;;7.70;95.60;;;;;;5035091;28;20688;-88
2021/12/14 09:34:49;;;;;;;92.17;43.53;;;7.70;95.60;;;;;;5035166;28;20307;-88
2021/12/14 09:37:16;;;;;;;80.80;39.50;;;7.70;95.60;;;;;;5035073;28;20219;-87
2021/12/14 09:39:49;;;;;;;80.33;38.90;;;7.80;95.60;;;;;;5036226;28;20180;-89
2021/12/14 09:42:25;;;;;;;79.53;40.53;;;7.80;95.70;;;;;;5034975;28;20204;-88
2021/12/14 09:44:53;;;;;;;84.17;39.80;;;7.80;95.70;;;;;;5036272;28;20160;-88
2021/12/14 09:47:25;;;;;;;74.23;36.73;;;7.80;95.70;;;;;;5036369;28;20295;-88
2021/12/14 09:49:51;;;;;;;86.70;40.47;;;7.80;95.70;;;;;;5034678;28;20521;-88
2021/12/14 09:52:25;;;;;;;84.77;39.70;;;7.80;95.70;;;;;;5035975;28;20189;-88
2021/12/14 09:54:52;;;;;;;85.23;42.30;;;7.80;95.70;;;;;;5036005;28;20159;-87
2021/12/14 09:57:25;;;;;;;88.70;40.10;;;7.80;95.80;;;;;;5036278;28;20227;-88
2021/12/14 09:59:52;;;;;;;88.53;39.47;;;7.80;95.80;;;;;;5035912;28;20504;-88
2021/12/14 10:02:26;;;;;;;81.57;38.27;;;7.80;95.80;;;;;;5034914;28;20227;-89
2021/12/14 10:04:58;;;;;;;82.23;38.70;;;7.80;95.80;;;;;;5034584;28;20652;-89
2021/12/14 10:07:24;;;;;;;92.13;42.07;;;7.80;95.80;;;;;;5035782;28;20184;-88
2021/12/14 10:09:54;;;;;;;78.07;42.40;;;7.80;95.80;;;;;;5035602;28;20202;-89
2021/12/14 10:15:05;;;;;;;81.27;40.70;;;7.90;95.90;;;;;;5035620;28;20160;-88
2021/12/14 10:17:31;;;;;;;82.93;42.37;;;7.80;95.90;;;;;;5034199;28;20199;-88
2021/12/14 10:19:56;;;;;;;82.47;41.70;;;7.90;95.90;;;;;;5034277;28;20181;-88
2021/12/14 10:22:26;;;;;;;89.77;43.90;;;7.90;95.90;;;;;;5035418;28;20183;-88
2021/12/14 10:25:02;;;;;;;89.17;44.57;;;7.90;95.90;;;;;;5035299;28;20172;-88
2021/12/14 10:27:30;;;;;;;86.00;40.20;;;7.90;96.00;;;;;;5034085;28;20703;-89
2021/12/14 10:29:59;;;;;;;81.57;39.13;;;7.90;95.90;;;;;;5035408;28;20169;-89
2021/12/14 10:32:31;;;;;;;86.97;41.40;;;8.00;96.00;;;;;;5033923;28;20183;-88
2021/12/14 10:35:12;;;;;;;88.53;42.30;;;7.90;96.00;;;;;;5035075;28;20153;-89
2021/12/14 10:37:53;;;;;;;88.80;43.67;;;7.90;96.00;;;;;;5035016;28;20164;-89
2021/12/14 10:43:20;;;;;;;98.30;47.10;;;7.90;96.00;;;;;;5035523;28;20160;-89
2021/12/14 10:45:51;;;;;;;95.37;44.20;;;7.90;96.00;;;;;;5034795;28;20223;-89
2021/12/14 10:48:18;;;;;;;97.90;47.13;;;7.90;96.00;;;;;;5033625;28;20179;-90
2021/12/14 10:50:46;;;;;;;89.83;44.57;;;7.90;96.00;;;;;;5033996;28;20196;-90
2021/12/14 10:53:12;;;;;;;95.90;46.60;;;7.90;96.00;;;;;;5034686;28;20200;-89
2021/12/14 10:55:51;;;;;;;99.63;46.00;;;7.90;96.10;;;;;;5033417;28;20648;-90
2021/12/14 10:58:19;;;;;;;97.23;44.97;;;7.90;96.10;;;;;;5033712;28;20168;-90
2021/12/14 11:00:56;;;;;;;88.83;44.63;;;7.90;96.10;;;;;;5032824;28;20216;-89
2021/12/14 11:03:30;;;;;;;100.97;45.90;;;8.00;96.10;;;;;;5034361;28;20540;-89
2021/12/14 11:06:00;;;;;;;91.97;43.90;;;8.00;96.10;;;;;;5033313;28;20171;-89
2021/12/14 11:10:59;;;;;;;102.27;47.07;;;8.00;96.10;;;;;;5034867;28;20648;-89
2021/12/14 11:13:25;;;;;;;95.60;46.33;;;8.00;96.10;;;;;;5033072;28;20177;-90
2021/12/14 11:15:54;;;;;;;97.87;45.47;;;8.00;96.10;;;;;;5034192;28;20187;-88
2021/12/14 11:18:25;;;;;;;90.53;44.87;;;8.00;96.10;;;;;;5033590;28;20188;-89
2021/12/14 11:21:05;;;;;;;82.13;41.47;;;8.00;96.10;;;;;;5033051;28;20196;-89
2021/12/14 11:23:36;;;;;;;88.53;43.10;;;8.00;96.10;;;;;;5034961;28;20165;-89
2021/12/14 11:26:08;;;;;;;92.27;42.03;;;8.10;96.10;;;;;;5032896;28;20271;-89
2021/12/14 11:28:41;;;;;;;88.43;41.87;;;8.10;96.10;;;;;;5032794;28;20191;-90
2021/12/14 11:31:28;;;;;;;82.13;41.77;;;8.10;96.10;;;;;;5032683;28;20203;-89
2021/12/14 11:34:02;;;;;;;80.17;39.37;;;8.10;96.00;;;;;;5032842;28;20169;-89
2021/12/14 11:36:45;;;;;;;79.00;38.00;;;8.10;96.00;;;;;;5033884;28;20544;-89
2021/12/14 11:39:22;;;;;;;77.93;39.40;;;8.00;96.00;;;;;;5032584;28;20255;-89
2021/12/14 11:41:55;;;;;;;86.03;39.03;;;8.10;96.00;;;;;;5032572;28;20331;-89
2021/12/14 11:44:33;;;;;;;74.53;37.60;;;8.10;96.00;;;;;;5033818;28;20169;-89
2021/12/14 11:47:33;;;;;;;73.63;33.63;;;8.10;96.00;;;;;;5032608;28;20249;-89
2021/12/14 11:50:07;;;;;;;70.00;33.77;;;8.10;96.00;;;;;;5033461;28;20633;-89
2021/12/14 11:52:36;;;;;;;79.63;36.80;;;8.10;96.00;;;;;;5032433;28;20259;-89
2021/12/14 11:55:24;;;;;;;71.43;34.13;;;8.10;96.00;;;;;;5033034;28;20177;-89
2021/12/14 11:58:20;;;;;;;69.70;33.40;;;8.10;96.00;;;;;;5032389;28;20172;-89
2021/12/14 12:00:51;;;;;;;65.30;31.97;;;8.20;96.00;;;;;;5031842;28;20220;-89
2021/12/14 12:03:56;;;;;;;70.93;32.77;;;8.20;96.00;;;;;;5032306;28;20546;-90
2021/12/14 12:09:32;;;;;;;64.13;32.50;;;8.20;96.00;;;;;;5033787;28;20256;-89
2021/12/14 12:12:07;;;;;;;69.27;30.73;;;8.20;95.90;;;;;;5033250;28;20192;-89
2021/12/14 12:14:50;;;;;;;64.10;31.63;;;8.30;95.90;;;;;;5032218;28;20164;-89
2021/12/14 12:17:33;;;;;;;59.97;30.53;;;8.20;95.90;;;;;;5032168;28;20175;-89
2021/12/14 12:20:05;;;;;;;63.73;30.43;;;8.30;95.90;;;;;;5032151;28;20640;-89
2021/12/14 12:22:47;;;;;;;60.13;30.07;;;8.30;95.90;;;;;;5032247;28;20652;-89
2021/12/14 12:25:18;;;;;;;66.00;29.40;;;8.30;95.90;;;;;;5032037;28;20165;-89
2021/12/14 12:28:00;;;;;;;62.90;30.07;;;8.30;95.90;;;;;;5032103;28;20585;-90
2021/12/14 12:30:49;;;;;;;56.70;28.23;;;8.30;95.90;;;;;;5033218;28;20688;-89
2021/12/14 12:33:28;;;;;;;55.80;25.93;;;8.30;95.80;;;;;;5032949;28;20177;-89
2021/12/14 12:35:59;;;;;;;62.00;27.93;;;8.30;95.90;;;;;;5033301;28;20251;-89
2021/12/14 12:38:36;;;;;;;63.20;28.47;;;8.30;95.80;;;;;;5033107;28;20177;-89
2021/12/14 12:41:27;;;;;;;61.47;29.20;;;8.30;95.80;;;;;;5031953;28;20235;-89
2021/12/14 12:44:12;;;;;;;55.10;27.73;;;8.30;95.80;;;;;;5033177;28;20157;-89
2021/12/14 12:46:49;;;;;;;56.53;26.93;;;8.30;95.80;;;;;;5031825;28;20196;-89
2021/12/14 12:49:18;;;;;;;51.37;27.93;;;8.40;95.80;;;;;;5031955;28;20188;-89
2021/12/14 12:52:01;;;;;;;49.87;26.37;;;8.40;95.80;;;;;;5031742;28;20283;-89
2021/12/14 12:54:29;;;;;;;51.27;25.63;;;8.40;95.80;;;;;;5031860;28;20173;-90
2021/12/14 12:57:23;;;;;;;49.70;22.93;;;8.40;95.80;;;;;;5031798;28;20554;-89
2021/12/14 12:59:55;;;;;;;42.37;23.20;;;8.40;95.80;;;;;;5031795;28;20235;-87
2021/12/14 13:02:24;;;;;;;43.87;22.50;;;8.40;95.80;;;;;;5031596;28;20278;-89
2021/12/14 13:04:56;;;;;;;39.33;20.60;;;8.40;95.80;;;;;;5033074;28;20181;-89
2021/12/14 13:07:39;;;;;;;42.97;23.23;;;8.40;95.80;;;;;;5032917;28;20239;-89
2021/12/14 13:10:08;;;;;;;47.50;22.37;;;8.40;95.70;;;;;;5031641;28;20561;-89
2021/12/14 13:13:05;;;;;;;45.13;23.80;;;8.30;95.70;;;;;;5031691;28;20547;-88
2021/12/14 13:15:47;;;;;;;42.70;23.07;;;8.40;95.70;;;;;;5023336;28;20189;-89
2021/12/14 13:18:22;;;;;;;39.13;20.10;;;8.50;95.70;;;;;;5033156;28;20197;-89
2021/12/14 13:20:51;;;;;;;39.67;21.73;;;8.40;95.70;;;;;;5031428;28;20204;-90
2021/12/14 13:23:22;;;;;;;35.80;20.13;;;8.30;95.60;;;;;;5032199;28;20188;-89
2021/12/14 13:25:49;;;;;;;33.07;17.70;;;8.40;95.60;;;;;;5034320;28;20177;-89
2021/12/14 13:28:15;;;;;;;33.10;18.13;;;8.40;95.60;;;;;;5035058;28;20181;-89
2021/12/14 13:30:42;;;;;;;31.40;17.97;;;8.40;95.60;;;;;;5036141;28;20235;-89
2021/12/14 13:33:26;;;;;;;31.07;16.07;;;8.40;95.60;;;;;;5035312;28;20181;-89
2021/12/14 13:35:53;;;;;;;32.53;16.53;;;8.50;95.60;;;;;;5036178;28;20173;-89
2021/12/14 13:38:18;;;;;;;27.03;15.23;;;8.50;95.60;;;;;;5034877;28;20645;-89
2021/12/14 13:40:46;;;;;;;36.40;17.27;;;8.40;95.60;;;;;;5034943;28;20256;-89
2021/12/14 13:43:18;;;;;;;33.93;16.83;;;8.40;95.50;;;;;;5034793;28;20173;-89
2021/12/14 13:45:48;;;;;;;31.20;16.10;;;8.40;95.50;;;;;;5036059;28;20165;-89